Pagrindinis puslapis
METAR-TAF:

METAR-TAF

Oro uostai :

Dresdenas, Vokietija

platuma: 51-08N, ilguma: 013-45E, Aukštis: 230 m

Dabartinis oras

Ataskaita buvo paskelbta 38 minutes, ne 03:50 UTC
Vėjas 11 kt iš Pietvakarių
Temperatūra 7°C
Drėgmė 76%
Slėgis 1017 hPa
Matomumas 10 km arba daugiau
Išsisklaidę debesys ne aukštis 4000 ft

METAR: EDDC 180350Z 23011KT 9999 SCT040 07/03 Q1017

Laikas: 05:28 (04:28 UTC)

Prognozė

Ataskaita buvo paskelbta 5 valandos ir 28 minutes, ne 23:00 UTC
Prognozė galioja nuo 18 metu 00 UTC su 18 metu 24 UTC
Vėjas 15 kt iš Pietvakarių su gūsio iki 25 kt
Matomumas 10 km arba daugiau
Išsisklaidę debesys ne aukštis 4500 ft
Tapsmas
nuo 18 metu 07 UTC su 18 metu 09 UTC
Vėjas 20 kt iš Vakarų/Pietvakarių su gūsio iki 30 kt
Tapsmas
nuo 18 metu 15 UTC su 18 metu 17 UTC
Vėjas 15 kt iš Pietvakarių su gūsio iki 25 kt

TAF: EDDC 172300Z 1800/1824 23015G25KT 9999 SCT045 BECMG 1807/1809 25020G30KT BECMG 1815/1817 23015G25KT

Orai ataskaitas ir orų prognozės (METAR, TAF).

turimą stotys yra geltonos ir raudonos taškus žemėlapyje.

Perkelti pele per norėdami pamatyti stoties vardą.

Tada spustelėkite, norėdami matyti oro stebėjimo ir prognozės.

Norėdami pakeisti žemėlapį: spustelėkite ant žalios mygtukų su juodo kryžiaus žemyn,; žalią mygtuką su brūkšneliu, jei norite nutolinti; arba žalių rodyklių gretimoms žemėlapius.


METAR-TAF: